sensor_id;sensor_type;location;lat;lon;timestamp;P1;durP1;ratioP1;P2;durP2;ratioP2
54993;SDS011;40891;47.242;8.648;2023-02-23T00:01:53;15.63;;;9.37;;
54993;SDS011;40891;47.242;8.648;2023-02-23T00:04:19;16.13;;;9.30;;
54993;SDS011;40891;47.242;8.648;2023-02-23T00:06:45;17.67;;;9.83;;
54993;SDS011;40891;47.242;8.648;2023-02-23T00:09:10;21.47;;;9.80;;
54993;SDS011;40891;47.242;8.648;2023-02-23T00:11:46;17.13;;;9.50;;
54993;SDS011;40891;47.242;8.648;2023-02-23T00:14:16;17.97;;;9.40;;
54993;SDS011;40891;47.242;8.648;2023-02-23T00:16:42;16.27;;;9.53;;
54993;SDS011;40891;47.242;8.648;2023-02-23T00:19:09;15.20;;;10.07;;
54993;SDS011;40891;47.242;8.648;2023-02-23T00:21:38;21.40;;;9.70;;
54993;SDS011;40891;47.242;8.648;2023-02-23T00:24:05;16.13;;;10.43;;
54993;SDS011;40891;47.242;8.648;2023-02-23T00:26:33;19.50;;;10.60;;
54993;SDS011;40891;47.242;8.648;2023-02-23T00:29:02;17.70;;;10.33;;
54993;SDS011;40891;47.242;8.648;2023-02-23T00:31:29;18.30;;;11.23;;
54993;SDS011;40891;47.242;8.648;2023-02-23T00:33:55;22.43;;;12.13;;
54993;SDS011;40891;47.242;8.648;2023-02-23T00:36:24;20.80;;;11.77;;
54993;SDS011;40891;47.242;8.648;2023-02-23T00:38:52;21.10;;;12.40;;
54993;SDS011;40891;47.242;8.648;2023-02-23T00:41:18;21.00;;;12.60;;
54993;SDS011;40891;47.242;8.648;2023-02-23T00:43:47;23.60;;;13.57;;
54993;SDS011;40891;47.242;8.648;2023-02-23T00:46:14;22.03;;;13.77;;
54993;SDS011;40891;47.242;8.648;2023-02-23T00:48:41;21.20;;;13.50;;
54993;SDS011;40891;47.242;8.648;2023-02-23T00:51:07;22.23;;;14.50;;
54993;SDS011;40891;47.242;8.648;2023-02-23T00:53:33;26.47;;;14.93;;
54993;SDS011;40891;47.242;8.648;2023-02-23T00:55:58;23.97;;;14.83;;
54993;SDS011;40891;47.242;8.648;2023-02-23T00:58:24;25.80;;;15.87;;
54993;SDS011;40891;47.242;8.648;2023-02-23T01:00:51;23.20;;;15.27;;
54993;SDS011;40891;47.242;8.648;2023-02-23T01:03:17;22.23;;;14.97;;
54993;SDS011;40891;47.242;8.648;2023-02-23T01:05:43;27.67;;;15.67;;
54993;SDS011;40891;47.242;8.648;2023-02-23T01:08:08;29.27;;;15.73;;
54993;SDS011;40891;47.242;8.648;2023-02-23T01:10:41;25.17;;;15.53;;
54993;SDS011;40891;47.242;8.648;2023-02-23T01:13:08;25.37;;;15.60;;
54993;SDS011;40891;47.242;8.648;2023-02-23T01:15:34;26.30;;;15.67;;
54993;SDS011;40891;47.242;8.648;2023-02-23T01:18:05;28.00;;;15.00;;
54993;SDS011;40891;47.242;8.648;2023-02-23T01:20:32;26.30;;;16.17;;
54993;SDS011;40891;47.242;8.648;2023-02-23T01:23:00;28.93;;;15.70;;
54993;SDS011;40891;47.242;8.648;2023-02-23T01:25:26;25.07;;;16.00;;
54993;SDS011;40891;47.242;8.648;2023-02-23T01:27:53;30.43;;;17.20;;
54993;SDS011;40891;47.242;8.648;2023-02-23T01:30:19;32.90;;;17.43;;
54993;SDS011;40891;47.242;8.648;2023-02-23T01:32:45;26.10;;;16.43;;
54993;SDS011;40891;47.242;8.648;2023-02-23T01:35:10;30.77;;;17.47;;
54993;SDS011;40891;47.242;8.648;2023-02-23T01:37:40;30.07;;;17.03;;
54993;SDS011;40891;47.242;8.648;2023-02-23T01:40:14;28.93;;;16.10;;
54993;SDS011;40891;47.242;8.648;2023-02-23T01:42:53;28.43;;;17.13;;
54993;SDS011;40891;47.242;8.648;2023-02-23T01:47:49;28.70;;;18.23;;
54993;SDS011;40891;47.242;8.648;2023-02-23T01:50:16;31.30;;;17.17;;
54993;SDS011;40891;47.242;8.648;2023-02-23T01:52:43;30.70;;;17.60;;
54993;SDS011;40891;47.242;8.648;2023-02-23T01:55:11;32.47;;;18.07;;
54993;SDS011;40891;47.242;8.648;2023-02-23T01:57:38;26.40;;;17.17;;
54993;SDS011;40891;47.242;8.648;2023-02-23T02:00:06;29.77;;;18.13;;
54993;SDS011;40891;47.242;8.648;2023-02-23T02:02:39;30.80;;;17.70;;
54993;SDS011;40891;47.242;8.648;2023-02-23T02:05:04;31.87;;;17.43;;
54993;SDS011;40891;47.242;8.648;2023-02-23T02:07:38;31.63;;;18.27;;
54993;SDS011;40891;47.242;8.648;2023-02-23T02:10:09;32.50;;;17.87;;
54993;SDS011;40891;47.242;8.648;2023-02-23T02:12:42;29.30;;;18.17;;
54993;SDS011;40891;47.242;8.648;2023-02-23T02:15:10;32.27;;;17.63;;
54993;SDS011;40891;47.242;8.648;2023-02-23T02:21:01;32.17;;;19.87;;
54993;SDS011;40891;47.242;8.648;2023-02-23T02:23:52;30.87;;;17.90;;
54993;SDS011;40891;47.242;8.648;2023-02-23T02:27:09;31.23;;;19.47;;
54993;SDS011;40891;47.242;8.648;2023-02-23T02:30:08;37.20;;;19.67;;
54993;SDS011;40891;47.242;8.648;2023-02-23T02:44:17;31.47;;;19.23;;
54993;SDS011;40891;47.242;8.648;2023-02-23T02:46:52;33.53;;;19.40;;
54993;SDS011;40891;47.242;8.648;2023-02-23T02:49:31;31.80;;;19.40;;
54993;SDS011;40891;47.242;8.648;2023-02-23T02:52:12;33.73;;;18.97;;
54993;SDS011;40891;47.242;8.648;2023-02-23T02:54:40;33.53;;;18.90;;
54993;SDS011;40891;47.242;8.648;2023-02-23T02:57:12;30.97;;;17.90;;
54993;SDS011;40891;47.242;8.648;2023-02-23T02:59:43;33.27;;;19.23;;
54993;SDS011;40891;47.242;8.648;2023-02-23T03:02:28;28.93;;;18.10;;
54993;SDS011;40891;47.242;8.648;2023-02-23T03:05:17;30.27;;;17.93;;
54993;SDS011;40891;47.242;8.648;2023-02-23T03:11:04;29.93;;;17.60;;
54993;SDS011;40891;47.242;8.648;2023-02-23T03:17:06;28.20;;;17.67;;
54993;SDS011;40891;47.242;8.648;2023-02-23T03:20:10;30.80;;;18.23;;
54993;SDS011;40891;47.242;8.648;2023-02-23T03:23:21;29.60;;;17.27;;
54993;SDS011;40891;47.242;8.648;2023-02-23T03:26:15;29.17;;;16.77;;
54993;SDS011;40891;47.242;8.648;2023-02-23T03:35:20;25.27;;;15.77;;
54993;SDS011;40891;47.242;8.648;2023-02-23T03:38:09;26.30;;;16.20;;
54993;SDS011;40891;47.242;8.648;2023-02-23T03:40:59;28.03;;;15.50;;
54993;SDS011;40891;47.242;8.648;2023-02-23T03:43:52;26.97;;;15.87;;
54993;SDS011;40891;47.242;8.648;2023-02-23T03:46:40;29.17;;;15.97;;
54993;SDS011;40891;47.242;8.648;2023-02-23T03:49:27;25.67;;;16.30;;
54993;SDS011;40891;47.242;8.648;2023-02-23T03:52:17;32.33;;;17.33;;
54993;SDS011;40891;47.242;8.648;2023-02-23T03:55:08;32.90;;;18.57;;
54993;SDS011;40891;47.242;8.648;2023-02-23T03:57:57;31.60;;;17.50;;
54993;SDS011;40891;47.242;8.648;2023-02-23T04:00:44;30.83;;;18.00;;
54993;SDS011;40891;47.242;8.648;2023-02-23T04:03:31;27.97;;;17.70;;
54993;SDS011;40891;47.242;8.648;2023-02-23T04:06:19;32.90;;;17.97;;
54993;SDS011;40891;47.242;8.648;2023-02-23T04:09:07;31.50;;;17.80;;
54993;SDS011;40891;47.242;8.648;2023-02-23T04:17:55;27.53;;;16.40;;
54993;SDS011;40891;47.242;8.648;2023-02-23T04:20:21;25.93;;;16.60;;
54993;SDS011;40891;47.242;8.648;2023-02-23T04:22:46;28.57;;;17.20;;
54993;SDS011;40891;47.242;8.648;2023-02-23T04:25:13;27.43;;;16.83;;
54993;SDS011;40891;47.242;8.648;2023-02-23T04:27:39;31.87;;;17.73;;
54993;SDS011;40891;47.242;8.648;2023-02-23T04:30:05;32.50;;;18.03;;
54993;SDS011;40891;47.242;8.648;2023-02-23T04:32:31;28.27;;;17.03;;
54993;SDS011;40891;47.242;8.648;2023-02-23T04:34:56;29.10;;;17.80;;
54993;SDS011;40891;47.242;8.648;2023-02-23T04:37:22;29.03;;;18.40;;
54993;SDS011;40891;47.242;8.648;2023-02-23T04:39:47;32.07;;;17.53;;
54993;SDS011;40891;47.242;8.648;2023-02-23T04:42:15;28.47;;;17.97;;
54993;SDS011;40891;47.242;8.648;2023-02-23T04:44:40;29.63;;;17.60;;
54993;SDS011;40891;47.242;8.648;2023-02-23T04:47:06;31.03;;;18.83;;
54993;SDS011;40891;47.242;8.648;2023-02-23T04:49:31;32.97;;;17.73;;
54993;SDS011;40891;47.242;8.648;2023-02-23T04:51:57;27.87;;;16.43;;
54993;SDS011;40891;47.242;8.648;2023-02-23T04:54:22;35.03;;;17.43;;
54993;SDS011;40891;47.242;8.648;2023-02-23T04:56:47;27.10;;;16.63;;
54993;SDS011;40891;47.242;8.648;2023-02-23T04:59:13;31.30;;;17.03;;
54993;SDS011;40891;47.242;8.648;2023-02-23T05:01:38;29.57;;;17.10;;
54993;SDS011;40891;47.242;8.648;2023-02-23T05:04:04;28.37;;;16.90;;
54993;SDS011;40891;47.242;8.648;2023-02-23T05:06:29;26.23;;;16.83;;
54993;SDS011;40891;47.242;8.648;2023-02-23T05:08:55;24.77;;;16.07;;
54993;SDS011;40891;47.242;8.648;2023-02-23T05:11:20;31.17;;;16.60;;
54993;SDS011;40891;47.242;8.648;2023-02-23T05:13:45;28.87;;;17.77;;
54993;SDS011;40891;47.242;8.648;2023-02-23T05:16:11;27.17;;;15.63;;
54993;SDS011;40891;47.242;8.648;2023-02-23T05:18:36;30.30;;;16.03;;
54993;SDS011;40891;47.242;8.648;2023-02-23T05:21:02;26.30;;;15.67;;
54993;SDS011;40891;47.242;8.648;2023-02-23T05:23:31;28.63;;;16.53;;
54993;SDS011;40891;47.242;8.648;2023-02-23T05:26:03;26.47;;;15.40;;
54993;SDS011;40891;47.242;8.648;2023-02-23T05:28:34;28.10;;;15.83;;
54993;SDS011;40891;47.242;8.648;2023-02-23T05:31:00;30.63;;;15.83;;
54993;SDS011;40891;47.242;8.648;2023-02-23T05:33:27;24.70;;;15.47;;
54993;SDS011;40891;47.242;8.648;2023-02-23T05:35:53;25.70;;;15.90;;
54993;SDS011;40891;47.242;8.648;2023-02-23T05:38:19;26.17;;;14.90;;
54993;SDS011;40891;47.242;8.648;2023-02-23T05:40:46;24.33;;;15.27;;
54993;SDS011;40891;47.242;8.648;2023-02-23T05:43:11;24.50;;;15.13;;
54993;SDS011;40891;47.242;8.648;2023-02-23T05:45:40;25.80;;;14.27;;
54993;SDS011;40891;47.242;8.648;2023-02-23T05:48:06;27.10;;;14.83;;
54993;SDS011;40891;47.242;8.648;2023-02-23T05:50:32;26.20;;;15.23;;
54993;SDS011;40891;47.242;8.648;2023-02-23T05:52:58;26.10;;;15.43;;
54993;SDS011;40891;47.242;8.648;2023-02-23T05:55:23;24.50;;;15.20;;
54993;SDS011;40891;47.242;8.648;2023-02-23T05:57:49;24.57;;;15.73;;
54993;SDS011;40891;47.242;8.648;2023-02-23T06:00:15;23.20;;;14.27;;
54993;SDS011;40891;47.242;8.648;2023-02-23T06:02:40;24.63;;;14.30;;
54993;SDS011;40891;47.242;8.648;2023-02-23T06:05:06;23.97;;;14.70;;
54993;SDS011;40891;47.242;8.648;2023-02-23T06:07:32;22.23;;;15.30;;
54993;SDS011;40891;47.242;8.648;2023-02-23T06:09:58;26.57;;;14.87;;
54993;SDS011;40891;47.242;8.648;2023-02-23T06:12:23;26.37;;;15.23;;
54993;SDS011;40891;47.242;8.648;2023-02-23T06:14:49;24.50;;;14.60;;
54993;SDS011;40891;47.242;8.648;2023-02-23T06:17:15;23.43;;;14.83;;
54993;SDS011;40891;47.242;8.648;2023-02-23T06:19:41;27.63;;;14.87;;
54993;SDS011;40891;47.242;8.648;2023-02-23T06:22:06;27.53;;;14.47;;
54993;SDS011;40891;47.242;8.648;2023-02-23T06:24:32;28.40;;;14.10;;
54993;SDS011;40891;47.242;8.648;2023-02-23T06:26:58;24.57;;;13.90;;
54993;SDS011;40891;47.242;8.648;2023-02-23T06:29:23;26.83;;;13.97;;
54993;SDS011;40891;47.242;8.648;2023-02-23T06:31:49;23.33;;;13.80;;
54993;SDS011;40891;47.242;8.648;2023-02-23T06:34:14;24.60;;;13.60;;
54993;SDS011;40891;47.242;8.648;2023-02-23T06:36:40;19.17;;;12.87;;
54993;SDS011;40891;47.242;8.648;2023-02-23T06:39:06;23.93;;;13.50;;
54993;SDS011;40891;47.242;8.648;2023-02-23T06:41:31;23.03;;;13.20;;
54993;SDS011;40891;47.242;8.648;2023-02-23T06:43:57;26.00;;;14.90;;
54993;SDS011;40891;47.242;8.648;2023-02-23T06:46:22;24.40;;;14.80;;
54993;SDS011;40891;47.242;8.648;2023-02-23T06:48:48;31.00;;;16.47;;
54993;SDS011;40891;47.242;8.648;2023-02-23T06:51:14;25.67;;;16.07;;
54993;SDS011;40891;47.242;8.648;2023-02-23T06:53:39;26.60;;;16.17;;
54993;SDS011;40891;47.242;8.648;2023-02-23T06:56:05;29.47;;;15.67;;
54993;SDS011;40891;47.242;8.648;2023-02-23T06:58:30;26.07;;;15.47;;
54993;SDS011;40891;47.242;8.648;2023-02-23T07:00:56;30.63;;;16.20;;
54993;SDS011;40891;47.242;8.648;2023-02-23T07:03:23;26.20;;;15.10;;
54993;SDS011;40891;47.242;8.648;2023-02-23T07:05:50;27.73;;;17.30;;
54993;SDS011;40891;47.242;8.648;2023-02-23T07:08:16;25.80;;;16.40;;
54993;SDS011;40891;47.242;8.648;2023-02-23T07:10:42;25.73;;;15.70;;
54993;SDS011;40891;47.242;8.648;2023-02-23T07:13:08;30.93;;;16.90;;
54993;SDS011;40891;47.242;8.648;2023-02-23T07:15:34;26.60;;;16.33;;
54993;SDS011;40891;47.242;8.648;2023-02-23T07:18:00;28.13;;;16.97;;
54993;SDS011;40891;47.242;8.648;2023-02-23T07:20:26;27.47;;;16.87;;
54993;SDS011;40891;47.242;8.648;2023-02-23T07:22:52;28.83;;;17.73;;
54993;SDS011;40891;47.242;8.648;2023-02-23T07:25:19;26.70;;;16.87;;
54993;SDS011;40891;47.242;8.648;2023-02-23T07:27:45;29.13;;;17.20;;
54993;SDS011;40891;47.242;8.648;2023-02-23T07:30:11;28.13;;;17.13;;
54993;SDS011;40891;47.242;8.648;2023-02-23T07:32:37;26.87;;;16.90;;
54993;SDS011;40891;47.242;8.648;2023-02-23T07:35:03;28.63;;;17.33;;
54993;SDS011;40891;47.242;8.648;2023-02-23T07:37:28;26.33;;;16.13;;
54993;SDS011;40891;47.242;8.648;2023-02-23T07:39:54;28.17;;;16.97;;
54993;SDS011;40891;47.242;8.648;2023-02-23T07:42:19;27.23;;;16.63;;
54993;SDS011;40891;47.242;8.648;2023-02-23T07:44:44;28.23;;;16.03;;
54993;SDS011;40891;47.242;8.648;2023-02-23T07:47:10;28.37;;;16.87;;
54993;SDS011;40891;47.242;8.648;2023-02-23T07:49:35;27.10;;;17.03;;
54993;SDS011;40891;47.242;8.648;2023-02-23T07:52:01;26.80;;;16.23;;
54993;SDS011;40891;47.242;8.648;2023-02-23T07:54:26;27.10;;;15.60;;
54993;SDS011;40891;47.242;8.648;2023-02-23T07:56:51;23.80;;;13.37;;
54993;SDS011;40891;47.242;8.648;2023-02-23T07:59:17;27.00;;;14.27;;
54993;SDS011;40891;47.242;8.648;2023-02-23T08:01:43;22.40;;;14.57;;
54993;SDS011;40891;47.242;8.648;2023-02-23T08:04:08;25.87;;;14.60;;
54993;SDS011;40891;47.242;8.648;2023-02-23T08:06:34;23.63;;;13.30;;
54993;SDS011;40891;47.242;8.648;2023-02-23T08:08:59;23.63;;;13.47;;
54993;SDS011;40891;47.242;8.648;2023-02-23T08:11:26;20.33;;;13.33;;
54993;SDS011;40891;47.242;8.648;2023-02-23T08:13:53;20.70;;;13.03;;
54993;SDS011;40891;47.242;8.648;2023-02-23T08:16:20;23.43;;;12.80;;
54993;SDS011;40891;47.242;8.648;2023-02-23T08:18:46;21.57;;;13.20;;
54993;SDS011;40891;47.242;8.648;2023-02-23T08:21:11;19.23;;;12.00;;
54993;SDS011;40891;47.242;8.648;2023-02-23T08:23:37;19.13;;;11.70;;
54993;SDS011;40891;47.242;8.648;2023-02-23T08:26:02;22.23;;;12.73;;
54993;SDS011;40891;47.242;8.648;2023-02-23T08:28:28;18.63;;;11.77;;
54993;SDS011;40891;47.242;8.648;2023-02-23T08:30:54;19.87;;;12.07;;
54993;SDS011;40891;47.242;8.648;2023-02-23T08:33:20;19.40;;;12.77;;
54993;SDS011;40891;47.242;8.648;2023-02-23T08:35:46;19.87;;;12.13;;
54993;SDS011;40891;47.242;8.648;2023-02-23T08:38:11;17.70;;;12.10;;
54993;SDS011;40891;47.242;8.648;2023-02-23T08:40:36;16.27;;;11.03;;
54993;SDS011;40891;47.242;8.648;2023-02-23T08:43:02;19.90;;;11.90;;
54993;SDS011;40891;47.242;8.648;2023-02-23T08:45:27;18.70;;;12.10;;
54993;SDS011;40891;47.242;8.648;2023-02-23T08:47:53;21.43;;;11.07;;
54993;SDS011;40891;47.242;8.648;2023-02-23T08:50:19;18.37;;;11.33;;
54993;SDS011;40891;47.242;8.648;2023-02-23T08:52:45;19.63;;;11.47;;
54993;SDS011;40891;47.242;8.648;2023-02-23T08:55:10;17.80;;;11.40;;
54993;SDS011;40891;47.242;8.648;2023-02-23T08:57:37;18.77;;;11.30;;
54993;SDS011;40891;47.242;8.648;2023-02-23T09:00:04;17.53;;;10.93;;
54993;SDS011;40891;47.242;8.648;2023-02-23T09:02:38;17.23;;;10.63;;
54993;SDS011;40891;47.242;8.648;2023-02-23T09:05:05;20.03;;;11.73;;
54993;SDS011;40891;47.242;8.648;2023-02-23T09:07:31;18.90;;;10.63;;
54993;SDS011;40891;47.242;8.648;2023-02-23T09:09:57;17.43;;;10.33;;
54993;SDS011;40891;47.242;8.648;2023-02-23T09:12:22;14.97;;;9.67;;
54993;SDS011;40891;47.242;8.648;2023-02-23T09:14:48;13.90;;;8.57;;
54993;SDS011;40891;47.242;8.648;2023-02-23T09:17:15;12.20;;;9.07;;
54993;SDS011;40891;47.242;8.648;2023-02-23T09:19:41;16.27;;;8.77;;
54993;SDS011;40891;47.242;8.648;2023-02-23T09:22:06;13.20;;;7.83;;
54993;SDS011;40891;47.242;8.648;2023-02-23T09:24:32;13.20;;;8.27;;
54993;SDS011;40891;47.242;8.648;2023-02-23T09:26:59;11.90;;;7.97;;
54993;SDS011;40891;47.242;8.648;2023-02-23T09:29:25;14.63;;;8.97;;
54993;SDS011;40891;47.242;8.648;2023-02-23T09:31:50;18.40;;;9.23;;
54993;SDS011;40891;47.242;8.648;2023-02-23T09:34:17;14.03;;;8.50;;
54993;SDS011;40891;47.242;8.648;2023-02-23T09:36:43;15.40;;;8.77;;
54993;SDS011;40891;47.242;8.648;2023-02-23T09:39:08;13.67;;;9.20;;
54993;SDS011;40891;47.242;8.648;2023-02-23T09:47:31;16.53;;;8.53;;
54993;SDS011;40891;47.242;8.648;2023-02-23T09:50:11;12.40;;;8.37;;
54993;SDS011;40891;47.242;8.648;2023-02-23T09:52:41;12.47;;;8.27;;
54993;SDS011;40891;47.242;8.648;2023-02-23T09:55:11;12.87;;;8.50;;
54993;SDS011;40891;47.242;8.648;2023-02-23T09:57:38;13.40;;;8.40;;
54993;SDS011;40891;47.242;8.648;2023-02-23T10:02:58;11.20;;;7.90;;
54993;SDS011;40891;47.242;8.648;2023-02-23T10:05:37;10.63;;;7.70;;
54993;SDS011;40891;47.242;8.648;2023-02-23T10:08:12;9.63;;;7.28;;
54993;SDS011;40891;47.242;8.648;2023-02-23T10:10:45;10.25;;;6.97;;
54993;SDS011;40891;47.242;8.648;2023-02-23T10:16:41;10.35;;;6.75;;
54993;SDS011;40891;47.242;8.648;2023-02-23T10:19:02;15.45;;;7.00;;
54993;SDS011;40891;47.242;8.648;2023-02-23T10:21:40;8.40;;;5.72;;
54993;SDS011;40891;47.242;8.648;2023-02-23T10:24:29;10.30;;;6.75;;
54993;SDS011;40891;47.242;8.648;2023-02-23T10:27:14;11.38;;;6.13;;
54993;SDS011;40891;47.242;8.648;2023-02-23T10:29:45;7.78;;;6.22;;
54993;SDS011;40891;47.242;8.648;2023-02-23T10:32:26;9.90;;;6.28;;
54993;SDS011;40891;47.242;8.648;2023-02-23T10:35:17;11.43;;;5.93;;
54993;SDS011;40891;47.242;8.648;2023-02-23T10:37:45;10.02;;;6.43;;
54993;SDS011;40891;47.242;8.648;2023-02-23T10:40:14;8.02;;;6.00;;
54993;SDS011;40891;47.242;8.648;2023-02-23T10:42:47;8.13;;;5.95;;
54993;SDS011;40891;47.242;8.648;2023-02-23T10:45:13;8.88;;;5.28;;
54993;SDS011;40891;47.242;8.648;2023-02-23T10:47:49;6.88;;;5.15;;
54993;SDS011;40891;47.242;8.648;2023-02-23T10:50:26;7.47;;;5.55;;
54993;SDS011;40891;47.242;8.648;2023-02-23T10:52:54;6.93;;;5.15;;
54993;SDS011;40891;47.242;8.648;2023-02-23T10:55:28;7.53;;;5.60;;
54993;SDS011;40891;47.242;8.648;2023-02-23T10:58:07;8.00;;;6.07;;
54993;SDS011;40891;47.242;8.648;2023-02-23T11:00:48;8.25;;;6.05;;
54993;SDS011;40891;47.242;8.648;2023-02-23T11:03:21;10.48;;;6.53;;
54993;SDS011;40891;47.242;8.648;2023-02-23T11:05:56;5.82;;;5.18;;
54993;SDS011;40891;47.242;8.648;2023-02-23T11:08:23;6.25;;;5.47;;
54993;SDS011;40891;47.242;8.648;2023-02-23T11:10:56;7.13;;;5.53;;
54993;SDS011;40891;47.242;8.648;2023-02-23T11:13:34;7.50;;;5.03;;
54993;SDS011;40891;47.242;8.648;2023-02-23T11:16:24;6.88;;;5.80;;
54993;SDS011;40891;47.242;8.648;2023-02-23T11:18:57;9.10;;;6.40;;
54993;SDS011;40891;47.242;8.648;2023-02-23T11:21:35;9.00;;;6.40;;
54993;SDS011;40891;47.242;8.648;2023-02-23T11:24:12;7.28;;;6.20;;
54993;SDS011;40891;47.242;8.648;2023-02-23T11:26:40;12.18;;;6.72;;
54993;SDS011;40891;47.242;8.648;2023-02-23T11:29:14;10.98;;;7.93;;
54993;SDS011;40891;47.242;8.648;2023-02-23T11:31:49;8.55;;;6.80;;
54993;SDS011;40891;47.242;8.648;2023-02-23T11:34:21;7.03;;;6.32;;
54993;SDS011;40891;47.242;8.648;2023-02-23T11:36:57;8.35;;;6.15;;
54993;SDS011;40891;47.242;8.648;2023-02-23T11:39:30;8.40;;;5.60;;
54993;SDS011;40891;47.242;8.648;2023-02-23T11:42:12;9.05;;;6.60;;
54993;SDS011;40891;47.242;8.648;2023-02-23T11:44:40;8.57;;;6.80;;
54993;SDS011;40891;47.242;8.648;2023-02-23T11:47:12;8.02;;;6.32;;
54993;SDS011;40891;47.242;8.648;2023-02-23T11:49:42;8.27;;;5.97;;
54993;SDS011;40891;47.242;8.648;2023-02-23T11:52:11;6.20;;;5.55;;
54993;SDS011;40891;47.242;8.648;2023-02-23T11:54:40;8.25;;;6.25;;
54993;SDS011;40891;47.242;8.648;2023-02-23T11:57:56;9.55;;;6.03;;
54993;SDS011;40891;47.242;8.648;2023-02-23T12:00:19;9.45;;;6.00;;
54993;SDS011;40891;47.242;8.648;2023-02-23T12:02:52;7.40;;;5.32;;
54993;SDS011;40891;47.242;8.648;2023-02-23T12:05:29;6.32;;;5.68;;
54993;SDS011;40891;47.242;8.648;2023-02-23T12:08:01;5.32;;;4.82;;
54993;SDS011;40891;47.242;8.648;2023-02-23T12:10:36;7.60;;;5.05;;
54993;SDS011;40891;47.242;8.648;2023-02-23T12:15:41;6.75;;;5.00;;
54993;SDS011;40891;47.242;8.648;2023-02-23T12:18:15;8.43;;;5.70;;
54993;SDS011;40891;47.242;8.648;2023-02-23T12:20:56;7.05;;;6.05;;
54993;SDS011;40891;47.242;8.648;2023-02-23T12:23:28;7.05;;;5.43;;
54993;SDS011;40891;47.242;8.648;2023-02-23T12:25:58;11.18;;;6.45;;
54993;SDS011;40891;47.242;8.648;2023-02-23T12:28:36;6.40;;;5.43;;
54993;SDS011;40891;47.242;8.648;2023-02-23T12:33:59;8.80;;;5.63;;
54993;SDS011;40891;47.242;8.648;2023-02-23T12:36:37;6.72;;;4.82;;
54993;SDS011;40891;47.242;8.648;2023-02-23T12:39:12;9.52;;;4.75;;
54993;SDS011;40891;47.242;8.648;2023-02-23T12:41:57;8.55;;;5.45;;
54993;SDS011;40891;47.242;8.648;2023-02-23T12:53:04;7.05;;;4.40;;
54993;SDS011;40891;47.242;8.648;2023-02-23T12:55:49;6.57;;;4.38;;
54993;SDS011;40891;47.242;8.648;2023-02-23T13:01:03;9.13;;;4.95;;
54993;SDS011;40891;47.242;8.648;2023-02-23T13:06:36;7.97;;;4.85;;
54993;SDS011;40891;47.242;8.648;2023-02-23T13:17:10;9.23;;;4.40;;
54993;SDS011;40891;47.242;8.648;2023-02-23T13:19:40;8.05;;;4.70;;
54993;SDS011;40891;47.242;8.648;2023-02-23T13:22:25;8.32;;;4.63;;
54993;SDS011;40891;47.242;8.648;2023-02-23T13:24:57;9.13;;;4.85;;
54993;SDS011;40891;47.242;8.648;2023-02-23T13:27:32;12.13;;;5.03;;
54993;SDS011;40891;47.242;8.648;2023-02-23T13:30:01;7.88;;;4.90;;
54993;SDS011;40891;47.242;8.648;2023-02-23T13:32:28;8.40;;;4.80;;
54993;SDS011;40891;47.242;8.648;2023-02-23T13:37:30;8.52;;;4.50;;
54993;SDS011;40891;47.242;8.648;2023-02-23T13:42:51;7.18;;;4.88;;
54993;SDS011;40891;47.242;8.648;2023-02-23T13:49:02;9.23;;;4.50;;
54993;SDS011;40891;47.242;8.648;2023-02-23T13:56:45;9.40;;;3.80;;
54993;SDS011;40891;47.242;8.648;2023-02-23T13:59:36;8.07;;;3.63;;
54993;SDS011;40891;47.242;8.648;2023-02-23T14:07:44;6.00;;;3.70;;
54993;SDS011;40891;47.242;8.648;2023-02-23T14:10:16;7.22;;;3.78;;
54993;SDS011;40891;47.242;8.648;2023-02-23T14:20:55;7.93;;;4.27;;
54993;SDS011;40891;47.242;8.648;2023-02-23T14:23:27;9.63;;;4.18;;
54993;SDS011;40891;47.242;8.648;2023-02-23T14:29:21;8.07;;;3.67;;
54993;SDS011;40891;47.242;8.648;2023-02-23T14:37:30;7.95;;;3.97;;
54993;SDS011;40891;47.242;8.648;2023-02-23T14:42:29;9.30;;;4.10;;
54993;SDS011;40891;47.242;8.648;2023-02-23T14:44:55;8.68;;;3.70;;
54993;SDS011;40891;47.242;8.648;2023-02-23T14:47:26;12.10;;;3.67;;
54993;SDS011;40891;47.242;8.648;2023-02-23T14:49:59;8.13;;;3.80;;
54993;SDS011;40891;47.242;8.648;2023-02-23T14:52:26;9.75;;;4.05;;
54993;SDS011;40891;47.242;8.648;2023-02-23T14:57:52;7.28;;;4.05;;
54993;SDS011;40891;47.242;8.648;2023-02-23T15:02:58;7.57;;;4.10;;
54993;SDS011;40891;47.242;8.648;2023-02-23T15:05:29;10.20;;;4.25;;
54993;SDS011;40891;47.242;8.648;2023-02-23T15:08:05;8.75;;;4.05;;
54993;SDS011;40891;47.242;8.648;2023-02-23T15:10:38;10.82;;;3.95;;
54993;SDS011;40891;47.242;8.648;2023-02-23T15:13:26;8.57;;;3.60;;
54993;SDS011;40891;47.242;8.648;2023-02-23T15:15:53;8.75;;;4.22;;
54993;SDS011;40891;47.242;8.648;2023-02-23T15:18:21;9.35;;;4.10;;
54993;SDS011;40891;47.242;8.648;2023-02-23T15:20:54;8.02;;;3.78;;
54993;SDS011;40891;47.242;8.648;2023-02-23T15:23:19;7.90;;;4.20;;
54993;SDS011;40891;47.242;8.648;2023-02-23T15:25:45;6.68;;;3.58;;
54993;SDS011;40891;47.242;8.648;2023-02-23T15:30:54;11.27;;;4.75;;
54993;SDS011;40891;47.242;8.648;2023-02-23T15:33:20;12.52;;;5.85;;
54993;SDS011;40891;47.242;8.648;2023-02-23T15:35:53;12.13;;;4.55;;
54993;SDS011;40891;47.242;8.648;2023-02-23T15:38:29;7.35;;;4.90;;
54993;SDS011;40891;47.242;8.648;2023-02-23T15:40:58;9.68;;;4.32;;
54993;SDS011;40891;47.242;8.648;2023-02-23T15:43:27;10.57;;;4.88;;
54993;SDS011;40891;47.242;8.648;2023-02-23T15:45:57;11.55;;;4.60;;
54993;SDS011;40891;47.242;8.648;2023-02-23T15:48:30;12.82;;;5.05;;
54993;SDS011;40891;47.242;8.648;2023-02-23T15:51:31;10.55;;;4.93;;
54993;SDS011;40891;47.242;8.648;2023-02-23T15:54:02;8.77;;;4.85;;
54993;SDS011;40891;47.242;8.648;2023-02-23T15:56:37;13.50;;;4.25;;
54993;SDS011;40891;47.242;8.648;2023-02-23T15:59:10;14.40;;;4.60;;
54993;SDS011;40891;47.242;8.648;2023-02-23T16:01:40;13.23;;;4.45;;
54993;SDS011;40891;47.242;8.648;2023-02-23T16:06:37;10.68;;;5.07;;
54993;SDS011;40891;47.242;8.648;2023-02-23T16:11:46;10.35;;;4.22;;
54993;SDS011;40891;47.242;8.648;2023-02-23T16:14:15;6.80;;;3.65;;
54993;SDS011;40891;47.242;8.648;2023-02-23T16:16:44;11.85;;;3.80;;
54993;SDS011;40891;47.242;8.648;2023-02-23T16:19:11;9.20;;;4.53;;
54993;SDS011;40891;47.242;8.648;2023-02-23T16:21:38;12.35;;;4.05;;
54993;SDS011;40891;47.242;8.648;2023-02-23T16:24:11;10.48;;;4.60;;
54993;SDS011;40891;47.242;8.648;2023-02-23T16:26:48;11.10;;;5.22;;
54993;SDS011;40891;47.242;8.648;2023-02-23T16:29:25;11.50;;;4.35;;
54993;SDS011;40891;47.242;8.648;2023-02-23T16:31:54;12.80;;;4.70;;
54993;SDS011;40891;47.242;8.648;2023-02-23T16:34:24;8.88;;;3.85;;
54993;SDS011;40891;47.242;8.648;2023-02-23T16:36:56;10.23;;;5.05;;
54993;SDS011;40891;47.242;8.648;2023-02-23T16:39:22;17.00;;;5.33;;
54993;SDS011;40891;47.242;8.648;2023-02-23T16:41:53;13.07;;;4.97;;
54993;SDS011;40891;47.242;8.648;2023-02-23T16:44:18;13.63;;;5.17;;
54993;SDS011;40891;47.242;8.648;2023-02-23T16:46:55;15.63;;;4.43;;
54993;SDS011;40891;47.242;8.648;2023-02-23T16:49:33;11.93;;;4.00;;
54993;SDS011;40891;47.242;8.648;2023-02-23T16:51:59;11.37;;;4.43;;
54993;SDS011;40891;47.242;8.648;2023-02-23T16:54:25;12.23;;;5.03;;
54993;SDS011;40891;47.242;8.648;2023-02-23T16:56:51;13.70;;;4.77;;
54993;SDS011;40891;47.242;8.648;2023-02-23T16:59:19;13.47;;;4.87;;
54993;SDS011;40891;47.242;8.648;2023-02-23T17:01:46;13.87;;;5.23;;